sensor_id;sensor_type;location;lat;lon;timestamp;temperature;humidity
9723;DHT22;4900;49.306;8.500;2022-12-29T00:00:29;10.03;74.11
9723;DHT22;4900;49.306;8.500;2022-12-29T00:03:32;10.04;74.05
9723;DHT22;4900;49.306;8.500;2022-12-29T00:06:35;10.04;73.97
9723;DHT22;4900;49.306;8.500;2022-12-29T00:09:38;10.07;73.95
9723;DHT22;4900;49.306;8.500;2022-12-29T00:12:41;10.16;73.90
9723;DHT22;4900;49.306;8.500;2022-12-29T00:16:03;10.18;73.69
9723;DHT22;4900;49.306;8.500;2022-12-29T00:19:09;10.18;73.71
9723;DHT22;4900;49.306;8.500;2022-12-29T00:22:33;10.20;73.72
9723;DHT22;4900;49.306;8.500;2022-12-29T00:25:55;10.22;73.76
9723;DHT22;4900;49.306;8.500;2022-12-29T00:29:30;10.20;73.73
9723;DHT22;4900;49.306;8.500;2022-12-29T00:32:52;10.16;73.85
9723;DHT22;4900;49.306;8.500;2022-12-29T00:36:35;10.21;73.69
9723;DHT22;4900;49.306;8.500;2022-12-29T00:39:38;10.16;73.73
9723;DHT22;4900;49.306;8.500;2022-12-29T00:43:20;10.25;73.67
9723;DHT22;4900;49.306;8.500;2022-12-29T00:46:42;10.28;73.60
9723;DHT22;4900;49.306;8.500;2022-12-29T00:49:45;10.31;73.58
9723;DHT22;4900;49.306;8.500;2022-12-29T00:52:48;10.36;73.55
9723;DHT22;4900;49.306;8.500;2022-12-29T00:55:52;10.34;73.61
9723;DHT22;4900;49.306;8.500;2022-12-29T00:58:55;10.39;73.51
9723;DHT22;4900;49.306;8.500;2022-12-29T01:01:58;10.42;73.58
9723;DHT22;4900;49.306;8.500;2022-12-29T01:05:01;10.44;73.61
9723;DHT22;4900;49.306;8.500;2022-12-29T01:08:04;10.48;73.65
9723;DHT22;4900;49.306;8.500;2022-12-29T01:11:10;10.46;73.91
9723;DHT22;4900;49.306;8.500;2022-12-29T01:14:13;10.49;74.58
9723;DHT22;4900;49.306;8.500;2022-12-29T01:17:17;10.58;75.16
9723;DHT22;4900;49.306;8.500;2022-12-29T01:20:19;10.73;75.35
9723;DHT22;4900;49.306;8.500;2022-12-29T01:23:22;10.84;75.65
9723;DHT22;4900;49.306;8.500;2022-12-29T01:26:25;10.98;76.00
9723;DHT22;4900;49.306;8.500;2022-12-29T01:29:28;11.10;75.88
9723;DHT22;4900;49.306;8.500;2022-12-29T01:32:31;11.21;75.70
9723;DHT22;4900;49.306;8.500;2022-12-29T01:35:34;11.31;75.51
9723;DHT22;4900;49.306;8.500;2022-12-29T01:38:37;11.36;75.56
9723;DHT22;4900;49.306;8.500;2022-12-29T01:41:40;11.42;75.71
9723;DHT22;4900;49.306;8.500;2022-12-29T01:44:55;11.48;75.99
9723;DHT22;4900;49.306;8.500;2022-12-29T01:48:02;11.59;75.99
9723;DHT22;4900;49.306;8.500;2022-12-29T01:51:06;11.69;75.73
9723;DHT22;4900;49.306;8.500;2022-12-29T01:54:13;11.69;76.17
9723;DHT22;4900;49.306;8.500;2022-12-29T01:57:22;11.66;77.33
9723;DHT22;4900;49.306;8.500;2022-12-29T02:00:27;11.60;77.80
9723;DHT22;4900;49.306;8.500;2022-12-29T02:03:30;11.56;78.13
9723;DHT22;4900;49.306;8.500;2022-12-29T02:06:41;11.45;78.54
9723;DHT22;4900;49.306;8.500;2022-12-29T02:09:47;11.48;78.24
9723;DHT22;4900;49.306;8.500;2022-12-29T02:12:51;11.48;78.14
9723;DHT22;4900;49.306;8.500;2022-12-29T02:26:57;11.48;77.68
9723;DHT22;4900;49.306;8.500;2022-12-29T02:39:58;11.55;78.93
9723;DHT22;4900;49.306;8.500;2022-12-29T02:50:25;11.52;79.14
9723;DHT22;4900;49.306;8.500;2022-12-29T02:53:32;11.46;79.24
9723;DHT22;4900;49.306;8.500;2022-12-29T02:56:55;11.48;79.07
9723;DHT22;4900;49.306;8.500;2022-12-29T03:00:05;11.51;78.97
9723;DHT22;4900;49.306;8.500;2022-12-29T03:03:38;11.46;78.96
9723;DHT22;4900;49.306;8.500;2022-12-29T03:06:59;11.51;78.85
9723;DHT22;4900;49.306;8.500;2022-12-29T03:10:30;11.49;78.83
9723;DHT22;4900;49.306;8.500;2022-12-29T03:13:49;11.55;78.69
9723;DHT22;4900;49.306;8.500;2022-12-29T03:20:58;11.46;79.04
9723;DHT22;4900;49.306;8.500;2022-12-29T03:24:03;11.53;78.91
9723;DHT22;4900;49.306;8.500;2022-12-29T03:27:09;11.51;78.99
9723;DHT22;4900;49.306;8.500;2022-12-29T03:30:13;11.51;79.15
9723;DHT22;4900;49.306;8.500;2022-12-29T03:33:21;11.52;79.10
9723;DHT22;4900;49.306;8.500;2022-12-29T03:36:52;11.41;78.98
9723;DHT22;4900;49.306;8.500;2022-12-29T03:39:56;11.45;78.53
9723;DHT22;4900;49.306;8.500;2022-12-29T03:42:59;11.52;78.26
9723;DHT22;4900;49.306;8.500;2022-12-29T03:46:04;11.46;78.05
9723;DHT22;4900;49.306;8.500;2022-12-29T03:49:07;11.51;77.85
9723;DHT22;4900;49.306;8.500;2022-12-29T03:52:10;11.43;77.62
9723;DHT22;4900;49.306;8.500;2022-12-29T03:55:13;11.38;77.54
9723;DHT22;4900;49.306;8.500;2022-12-29T03:58:16;11.46;77.42
9723;DHT22;4900;49.306;8.500;2022-12-29T04:01:19;11.49;77.25
9723;DHT22;4900;49.306;8.500;2022-12-29T04:04:22;11.48;77.25
9723;DHT22;4900;49.306;8.500;2022-12-29T04:07:25;11.52;77.16
9723;DHT22;4900;49.306;8.500;2022-12-29T04:10:28;11.56;77.02
9723;DHT22;4900;49.306;8.500;2022-12-29T04:13:30;11.59;76.61
9723;DHT22;4900;49.306;8.500;2022-12-29T04:16:33;11.58;76.07
9723;DHT22;4900;49.306;8.500;2022-12-29T04:19:38;11.60;75.68
9723;DHT22;4900;49.306;8.500;2022-12-29T04:22:41;11.67;75.32
9723;DHT22;4900;49.306;8.500;2022-12-29T04:25:47;11.73;75.06
9723;DHT22;4900;49.306;8.500;2022-12-29T04:28:50;11.74;74.72
9723;DHT22;4900;49.306;8.500;2022-12-29T04:31:54;11.83;74.54
9723;DHT22;4900;49.306;8.500;2022-12-29T04:34:57;11.87;74.25
9723;DHT22;4900;49.306;8.500;2022-12-29T04:37:59;11.87;74.07
9723;DHT22;4900;49.306;8.500;2022-12-29T04:41:02;11.95;73.97
9723;DHT22;4900;49.306;8.500;2022-12-29T04:44:06;11.98;73.78
9723;DHT22;4900;49.306;8.500;2022-12-29T04:47:09;11.98;73.59
9723;DHT22;4900;49.306;8.500;2022-12-29T04:50:12;12.09;73.37
9723;DHT22;4900;49.306;8.500;2022-12-29T04:53:16;12.04;73.28
9723;DHT22;4900;49.306;8.500;2022-12-29T04:56:20;12.07;73.10
9723;DHT22;4900;49.306;8.500;2022-12-29T04:59:23;12.07;73.08
9723;DHT22;4900;49.306;8.500;2022-12-29T05:02:26;12.09;73.14
9723;DHT22;4900;49.306;8.500;2022-12-29T05:05:29;12.09;73.21
9723;DHT22;4900;49.306;8.500;2022-12-29T05:08:32;12.05;73.48
9723;DHT22;4900;49.306;8.500;2022-12-29T05:11:34;12.01;73.39
9723;DHT22;4900;49.306;8.500;2022-12-29T05:14:37;12.01;73.12
9723;DHT22;4900;49.306;8.500;2022-12-29T05:17:40;12.02;73.02
9723;DHT22;4900;49.306;8.500;2022-12-29T05:20:44;12.02;72.97
9723;DHT22;4900;49.306;8.500;2022-12-29T05:23:48;11.93;73.09
9723;DHT22;4900;49.306;8.500;2022-12-29T05:26:51;11.97;73.01
9723;DHT22;4900;49.306;8.500;2022-12-29T05:29:53;11.99;72.96
9723;DHT22;4900;49.306;8.500;2022-12-29T05:32:57;11.88;73.33
9723;DHT22;4900;49.306;8.500;2022-12-29T05:36:05;11.98;73.35
9723;DHT22;4900;49.306;8.500;2022-12-29T05:39:08;11.95;73.55
9723;DHT22;4900;49.306;8.500;2022-12-29T05:42:11;12.05;73.50
9723;DHT22;4900;49.306;8.500;2022-12-29T05:45:14;12.01;73.43
9723;DHT22;4900;49.306;8.500;2022-12-29T05:48:17;12.05;73.34
9723;DHT22;4900;49.306;8.500;2022-12-29T05:51:20;12.01;73.30
9723;DHT22;4900;49.306;8.500;2022-12-29T05:54:23;12.02;73.12
9723;DHT22;4900;49.306;8.500;2022-12-29T05:57:26;12.04;73.03
9723;DHT22;4900;49.306;8.500;2022-12-29T06:00:29;12.01;72.94
9723;DHT22;4900;49.306;8.500;2022-12-29T06:03:32;12.01;72.87
9723;DHT22;4900;49.306;8.500;2022-12-29T06:06:34;12.02;72.73
9723;DHT22;4900;49.306;8.500;2022-12-29T06:09:37;12.02;72.69
9723;DHT22;4900;49.306;8.500;2022-12-29T06:12:40;12.02;72.65
9723;DHT22;4900;49.306;8.500;2022-12-29T06:15:43;11.98;72.59
9723;DHT22;4900;49.306;8.500;2022-12-29T06:18:46;11.97;72.60
9723;DHT22;4900;49.306;8.500;2022-12-29T06:21:49;11.90;72.72
9723;DHT22;4900;49.306;8.500;2022-12-29T06:24:52;11.95;72.61
9723;DHT22;4900;49.306;8.500;2022-12-29T06:27:55;11.81;72.76
9723;DHT22;4900;49.306;8.500;2022-12-29T06:30:58;11.80;72.81
9723;DHT22;4900;49.306;8.500;2022-12-29T06:34:01;11.79;72.76
9723;DHT22;4900;49.306;8.500;2022-12-29T06:37:05;11.76;72.76
9723;DHT22;4900;49.306;8.500;2022-12-29T06:40:08;11.76;72.69
9723;DHT22;4900;49.306;8.500;2022-12-29T06:43:14;11.77;72.49
9723;DHT22;4900;49.306;8.500;2022-12-29T06:46:18;11.83;72.41
9723;DHT22;4900;49.306;8.500;2022-12-29T06:49:21;11.86;72.26
9723;DHT22;4900;49.306;8.500;2022-12-29T06:52:24;11.93;72.15
9723;DHT22;4900;49.306;8.500;2022-12-29T06:55:27;11.87;72.13
9723;DHT22;4900;49.306;8.500;2022-12-29T06:58:31;11.93;72.02
9723;DHT22;4900;49.306;8.500;2022-12-29T07:01:34;11.94;71.86
9723;DHT22;4900;49.306;8.500;2022-12-29T07:04:38;11.93;71.85
9723;DHT22;4900;49.306;8.500;2022-12-29T07:07:41;11.90;71.99
9723;DHT22;4900;49.306;8.500;2022-12-29T07:10:44;11.87;72.05
9723;DHT22;4900;49.306;8.500;2022-12-29T07:13:48;11.74;72.21
9723;DHT22;4900;49.306;8.500;2022-12-29T07:16:52;11.74;72.28
9723;DHT22;4900;49.306;8.500;2022-12-29T07:19:55;11.79;72.18
9723;DHT22;4900;49.306;8.500;2022-12-29T07:22:58;11.79;72.21
9723;DHT22;4900;49.306;8.500;2022-12-29T07:26:07;11.77;72.17
9723;DHT22;4900;49.306;8.500;2022-12-29T07:29:11;11.84;72.06
9723;DHT22;4900;49.306;8.500;2022-12-29T07:32:14;11.84;71.94
9723;DHT22;4900;49.306;8.500;2022-12-29T07:35:17;11.88;71.88
9723;DHT22;4900;49.306;8.500;2022-12-29T07:38:20;11.86;71.93
9723;DHT22;4900;49.306;8.500;2022-12-29T07:41:22;11.87;71.80
9723;DHT22;4900;49.306;8.500;2022-12-29T07:44:25;11.91;71.63
9723;DHT22;4900;49.306;8.500;2022-12-29T07:47:28;11.80;71.73
9723;DHT22;4900;49.306;8.500;2022-12-29T07:50:31;11.87;71.60
9723;DHT22;4900;49.306;8.500;2022-12-29T07:53:34;11.90;71.72
9723;DHT22;4900;49.306;8.500;2022-12-29T07:56:37;11.94;71.42
9723;DHT22;4900;49.306;8.500;2022-12-29T07:59:40;11.94;71.30
9723;DHT22;4900;49.306;8.500;2022-12-29T08:02:42;11.94;71.37
9723;DHT22;4900;49.306;8.500;2022-12-29T08:05:45;11.95;71.23
9723;DHT22;4900;49.306;8.500;2022-12-29T08:08:48;11.98;71.14
9723;DHT22;4900;49.306;8.500;2022-12-29T08:11:51;11.98;71.12
9723;DHT22;4900;49.306;8.500;2022-12-29T08:14:54;12.11;71.04
9723;DHT22;4900;49.306;8.500;2022-12-29T08:17:57;12.15;70.65
9723;DHT22;4900;49.306;8.500;2022-12-29T08:21:03;12.26;70.32
9723;DHT22;4900;49.306;8.500;2022-12-29T08:24:07;12.38;70.05
9723;DHT22;4900;49.306;8.500;2022-12-29T08:27:11;12.57;69.44
9723;DHT22;4900;49.306;8.500;2022-12-29T08:30:13;12.66;69.14
9723;DHT22;4900;49.306;8.500;2022-12-29T08:33:17;12.84;68.70
9723;DHT22;4900;49.306;8.500;2022-12-29T08:36:20;12.88;68.25
9723;DHT22;4900;49.306;8.500;2022-12-29T08:39:23;12.94;68.01
9723;DHT22;4900;49.306;8.500;2022-12-29T08:42:27;13.11;67.77
9723;DHT22;4900;49.306;8.500;2022-12-29T08:45:33;13.22;67.42
9723;DHT22;4900;49.306;8.500;2022-12-29T08:48:36;13.32;67.15
9723;DHT22;4900;49.306;8.500;2022-12-29T08:51:39;13.40;66.74
9723;DHT22;4900;49.306;8.500;2022-12-29T08:54:42;13.54;66.49
9723;DHT22;4900;49.306;8.500;2022-12-29T08:57:45;13.57;66.12
9723;DHT22;4900;49.306;8.500;2022-12-29T09:00:48;13.66;66.52
9723;DHT22;4900;49.306;8.500;2022-12-29T09:03:51;13.74;65.95
9723;DHT22;4900;49.306;8.500;2022-12-29T09:06:54;13.81;66.07
9723;DHT22;4900;49.306;8.500;2022-12-29T09:09:56;13.88;66.21
9723;DHT22;4900;49.306;8.500;2022-12-29T09:13:00;13.94;65.94
9723;DHT22;4900;49.306;8.500;2022-12-29T09:16:03;14.08;65.31
9723;DHT22;4900;49.306;8.500;2022-12-29T09:19:06;14.12;65.32
9723;DHT22;4900;49.306;8.500;2022-12-29T09:22:09;14.09;65.31
9723;DHT22;4900;49.306;8.500;2022-12-29T09:25:13;14.04;65.92
9723;DHT22;4900;49.306;8.500;2022-12-29T09:28:16;13.97;66.41
9723;DHT22;4900;49.306;8.500;2022-12-29T09:31:19;13.84;67.07
9723;DHT22;4900;49.306;8.500;2022-12-29T09:34:22;13.86;67.13
9723;DHT22;4900;49.306;8.500;2022-12-29T09:37:24;13.78;67.50
9723;DHT22;4900;49.306;8.500;2022-12-29T09:40:32;13.67;67.58
9723;DHT22;4900;49.306;8.500;2022-12-29T09:44:03;13.70;67.60
9723;DHT22;4900;49.306;8.500;2022-12-29T09:47:11;13.44;68.38
9723;DHT22;4900;49.306;8.500;2022-12-29T09:53:35;13.40;69.50
9723;DHT22;4900;49.306;8.500;2022-12-29T09:56:40;13.42;69.64
9723;DHT22;4900;49.306;8.500;2022-12-29T09:59:45;13.50;69.92
9723;DHT22;4900;49.306;8.500;2022-12-29T10:02:54;13.39;69.70
9723;DHT22;4900;49.306;8.500;2022-12-29T10:16:43;13.50;69.61
9723;DHT22;4900;49.306;8.500;2022-12-29T10:23:28;13.52;69.65
9723;DHT22;4900;49.306;8.500;2022-12-29T10:26:40;13.47;69.74
9723;DHT22;4900;49.306;8.500;2022-12-29T10:29:48;13.44;69.83
9723;DHT22;4900;49.306;8.500;2022-12-29T10:32:57;13.52;69.94
9723;DHT22;4900;49.306;8.500;2022-12-29T10:36:13;13.52;69.90
9723;DHT22;4900;49.306;8.500;2022-12-29T10:39:30;13.53;69.77
9723;DHT22;4900;49.306;8.500;2022-12-29T10:42:41;13.69;69.70
9723;DHT22;4900;49.306;8.500;2022-12-29T10:45:46;13.77;69.32
9723;DHT22;4900;49.306;8.500;2022-12-29T10:48:50;13.74;69.12
9723;DHT22;4900;49.306;8.500;2022-12-29T10:51:56;13.76;68.86
9723;DHT22;4900;49.306;8.500;2022-12-29T10:55:03;13.70;68.75
9723;DHT22;4900;49.306;8.500;2022-12-29T10:58:12;13.71;68.79
9723;DHT22;4900;49.306;8.500;2022-12-29T11:01:17;13.61;68.84
9723;DHT22;4900;49.306;8.500;2022-12-29T11:07:36;13.53;68.96
9723;DHT22;4900;49.306;8.500;2022-12-29T11:10:41;13.53;69.24
9723;DHT22;4900;49.306;8.500;2022-12-29T11:13:50;13.49;69.27
9723;DHT22;4900;49.306;8.500;2022-12-29T11:16:59;13.57;69.29
9723;DHT22;4900;49.306;8.500;2022-12-29T11:20:29;13.64;69.35
9723;DHT22;4900;49.306;8.500;2022-12-29T11:23:38;13.77;69.16
9723;DHT22;4900;49.306;8.500;2022-12-29T11:26:43;14.05;68.57
9723;DHT22;4900;49.306;8.500;2022-12-29T11:29:47;14.18;68.01
9723;DHT22;4900;49.306;8.500;2022-12-29T11:32:52;14.30;67.49
9723;DHT22;4900;49.306;8.500;2022-12-29T11:36:22;14.46;66.77
9723;DHT22;4900;49.306;8.500;2022-12-29T11:42:58;14.63;65.93
9723;DHT22;4900;49.306;8.500;2022-12-29T11:46:06;14.59;65.36
9723;DHT22;4900;49.306;8.500;2022-12-29T11:49:13;14.63;65.17
9723;DHT22;4900;49.306;8.500;2022-12-29T11:52:24;14.53;64.77
9723;DHT22;4900;49.306;8.500;2022-12-29T11:55:28;14.44;64.58
9723;DHT22;4900;49.306;8.500;2022-12-29T11:58:34;14.49;64.73
9723;DHT22;4900;49.306;8.500;2022-12-29T12:01:39;14.64;64.30
9723;DHT22;4900;49.306;8.500;2022-12-29T12:04:42;14.59;64.48
9723;DHT22;4900;49.306;8.500;2022-12-29T12:08:00;14.48;64.88
9723;DHT22;4900;49.306;8.500;2022-12-29T12:11:10;14.50;65.47
9723;DHT22;4900;49.306;8.500;2022-12-29T12:17:49;14.49;65.85
9723;DHT22;4900;49.306;8.500;2022-12-29T12:20:56;14.43;66.45
9723;DHT22;4900;49.306;8.500;2022-12-29T12:30:49;14.84;66.29
9723;DHT22;4900;49.306;8.500;2022-12-29T12:34:00;14.99;65.75
9723;DHT22;4900;49.306;8.500;2022-12-29T13:05:04;13.78;73.35
9723;DHT22;4900;49.306;8.500;2022-12-29T13:20:51;13.83;73.68
9723;DHT22;4900;49.306;8.500;2022-12-29T13:24:05;13.70;73.76
9723;DHT22;4900;49.306;8.500;2022-12-29T13:27:17;13.88;73.34
9723;DHT22;4900;49.306;8.500;2022-12-29T13:30:26;14.09;72.90
9723;DHT22;4900;49.306;8.500;2022-12-29T13:34:17;14.11;72.55
9723;DHT22;4900;49.306;8.500;2022-12-29T13:37:13;14.05;72.52
9723;DHT22;4900;49.306;8.500;2022-12-29T13:40:23;13.87;72.84
9723;DHT22;4900;49.306;8.500;2022-12-29T13:43:28;13.70;73.13
9723;DHT22;4900;49.306;8.500;2022-12-29T13:46:41;13.56;73.40
9723;DHT22;4900;49.306;8.500;2022-12-29T13:49:45;13.44;73.58
9723;DHT22;4900;49.306;8.500;2022-12-29T13:56:37;13.22;74.44
9723;DHT22;4900;49.306;8.500;2022-12-29T13:59:52;13.31;74.28
9723;DHT22;4900;49.306;8.500;2022-12-29T14:06:10;13.12;74.71
9723;DHT22;4900;49.306;8.500;2022-12-29T14:12:42;13.10;74.84
9723;DHT22;4900;49.306;8.500;2022-12-29T14:15:54;13.00;75.10
9723;DHT22;4900;49.306;8.500;2022-12-29T14:19:10;12.97;75.17
9723;DHT22;4900;49.306;8.500;2022-12-29T14:22:23;12.94;75.34
9723;DHT22;4900;49.306;8.500;2022-12-29T14:25:52;12.81;75.77
9723;DHT22;4900;49.306;8.500;2022-12-29T14:29:16;12.76;75.89
9723;DHT22;4900;49.306;8.500;2022-12-29T14:35:39;12.48;77.53
9723;DHT22;4900;49.306;8.500;2022-12-29T14:38:46;12.42;77.94
9723;DHT22;4900;49.306;8.500;2022-12-29T14:41:59;12.41;77.84
9723;DHT22;4900;49.306;8.500;2022-12-29T14:45:27;12.32;78.07
9723;DHT22;4900;49.306;8.500;2022-12-29T14:48:38;12.18;78.78
9723;DHT22;4900;49.306;8.500;2022-12-29T14:51:42;11.97;79.52
9723;DHT22;4900;49.306;8.500;2022-12-29T14:54:48;11.83;79.99
9723;DHT22;4900;49.306;8.500;2022-12-29T14:57:59;11.69;80.16
9723;DHT22;4900;49.306;8.500;2022-12-29T15:01:03;11.67;79.97
9723;DHT22;4900;49.306;8.500;2022-12-29T15:04:20;11.58;80.32
9723;DHT22;4900;49.306;8.500;2022-12-29T15:07:23;11.66;79.84
9723;DHT22;4900;49.306;8.500;2022-12-29T15:10:33;11.59;80.04
9723;DHT22;4900;49.306;8.500;2022-12-29T15:13:41;11.59;80.00
9723;DHT22;4900;49.306;8.500;2022-12-29T15:16:45;11.59;79.97
9723;DHT22;4900;49.306;8.500;2022-12-29T15:19:49;11.56;80.05
9723;DHT22;4900;49.306;8.500;2022-12-29T15:23:04;11.48;80.25
9723;DHT22;4900;49.306;8.500;2022-12-29T15:26:11;11.41;80.24
9723;DHT22;4900;49.306;8.500;2022-12-29T15:32:42;11.35;80.25
9723;DHT22;4900;49.306;8.500;2022-12-29T15:35:50;11.29;80.19
9723;DHT22;4900;49.306;8.500;2022-12-29T15:38:54;11.21;80.10
9723;DHT22;4900;49.306;8.500;2022-12-29T15:42:03;11.17;79.78
9723;DHT22;4900;49.306;8.500;2022-12-29T15:45:11;11.03;79.66
9723;DHT22;4900;49.306;8.500;2022-12-29T15:48:19;10.91;79.78
9723;DHT22;4900;49.306;8.500;2022-12-29T15:51:30;10.81;79.75
9723;DHT22;4900;49.306;8.500;2022-12-29T15:54:34;10.69;79.77
9723;DHT22;4900;49.306;8.500;2022-12-29T15:57:42;10.56;79.83
9723;DHT22;4900;49.306;8.500;2022-12-29T16:00:51;10.49;79.73
9723;DHT22;4900;49.306;8.500;2022-12-29T16:03:58;10.38;79.82
9723;DHT22;4900;49.306;8.500;2022-12-29T16:07:05;10.31;80.03
9723;DHT22;4900;49.306;8.500;2022-12-29T16:13:34;10.28;80.63
9723;DHT22;4900;49.306;8.500;2022-12-29T16:16:41;10.25;80.99
9723;DHT22;4900;49.306;8.500;2022-12-29T16:19:52;10.27;81.27
9723;DHT22;4900;49.306;8.500;2022-12-29T16:22:58;10.27;81.65
9723;DHT22;4900;49.306;8.500;2022-12-29T16:26:02;10.31;81.97
9723;DHT22;4900;49.306;8.500;2022-12-29T16:29:06;10.32;82.29
9723;DHT22;4900;49.306;8.500;2022-12-29T16:32:26;10.34;82.61
9723;DHT22;4900;49.306;8.500;2022-12-29T16:35:46;10.38;82.71
9723;DHT22;4900;49.306;8.500;2022-12-29T16:38:49;10.41;82.74
9723;DHT22;4900;49.306;8.500;2022-12-29T16:41:54;10.39;82.83
9723;DHT22;4900;49.306;8.500;2022-12-29T16:48:58;10.41;83.54
9723;DHT22;4900;49.306;8.500;2022-12-29T16:51:55;10.39;84.33
9723;DHT22;4900;49.306;8.500;2022-12-29T16:54:59;10.41;84.59
9723;DHT22;4900;49.306;8.500;2022-12-29T16:58:03;10.45;84.70
9723;DHT22;4900;49.306;8.500;2022-12-29T17:01:07;10.44;84.73
9723;DHT22;4900;49.306;8.500;2022-12-29T17:04:17;10.48;84.64
9723;DHT22;4900;49.306;8.500;2022-12-29T17:07:22;10.50;84.56
9723;DHT22;4900;49.306;8.500;2022-12-29T17:10:26;10.55;84.58
9723;DHT22;4900;49.306;8.500;2022-12-29T17:13:50;10.55;84.38
9723;DHT22;4900;49.306;8.500;2022-12-29T17:16:55;10.53;84.42
9723;DHT22;4900;49.306;8.500;2022-12-29T17:20:22;10.58;83.97
9723;DHT22;4900;49.306;8.500;2022-12-29T17:23:26;10.59;84.02
9723;DHT22;4900;49.306;8.500;2022-12-29T17:26:30;10.56;84.05
9723;DHT22;4900;49.306;8.500;2022-12-29T17:29:37;10.56;84.36
9723;DHT22;4900;49.306;8.500;2022-12-29T17:32:42;10.44;84.64
9723;DHT22;4900;49.306;8.500;2022-12-29T17:35:46;10.48;84.60
9723;DHT22;4900;49.306;8.500;2022-12-29T17:38:49;10.48;84.56
9723;DHT22;4900;49.306;8.500;2022-12-29T17:41:52;10.46;84.51
9723;DHT22;4900;49.306;8.500;2022-12-29T17:44:56;10.45;84.56
9723;DHT22;4900;49.306;8.500;2022-12-29T17:47:59;10.46;84.27
9723;DHT22;4900;49.306;8.500;2022-12-29T17:51:04;10.44;84.12
9723;DHT22;4900;49.306;8.500;2022-12-29T17:54:25;10.44;84.01
9723;DHT22;4900;49.306;8.500;2022-12-29T17:57:29;10.42;83.83
9723;DHT22;4900;49.306;8.500;2022-12-29T18:00:32;10.45;83.77
9723;DHT22;4900;49.306;8.500;2022-12-29T18:03:37;10.44;83.91
9723;DHT22;4900;49.306;8.500;2022-12-29T18:06:41;10.48;83.94
9723;DHT22;4900;49.306;8.500;2022-12-29T18:09:44;10.49;84.34
9723;DHT22;4900;49.306;8.500;2022-12-29T18:12:49;10.42;84.58
9723;DHT22;4900;49.306;8.500;2022-12-29T18:15:53;10.45;84.66
9723;DHT22;4900;49.306;8.500;2022-12-29T18:18:56;10.44;84.62
9723;DHT22;4900;49.306;8.500;2022-12-29T18:22:00;10.46;84.74
9723;DHT22;4900;49.306;8.500;2022-12-29T18:25:24;10.36;85.07
9723;DHT22;4900;49.306;8.500;2022-12-29T18:28:31;10.31;85.03
9723;DHT22;4900;49.306;8.500;2022-12-29T18:31:33;10.32;85.00
9723;DHT22;4900;49.306;8.500;2022-12-29T18:34:40;10.25;84.93
9723;DHT22;4900;49.306;8.500;2022-12-29T18:37:47;10.24;84.84
9723;DHT22;4900;49.306;8.500;2022-12-29T18:40:50;10.22;84.56
9723;DHT22;4900;49.306;8.500;2022-12-29T18:43:54;10.16;84.90
9723;DHT22;4900;49.306;8.500;2022-12-29T18:46:57;10.13;85.09
9723;DHT22;4900;49.306;8.500;2022-12-29T18:50:01;10.06;85.17
9723;DHT22;4900;49.306;8.500;2022-12-29T18:53:04;10.01;85.64
9723;DHT22;4900;49.306;8.500;2022-12-29T18:56:08;9.97;85.70
9723;DHT22;4900;49.306;8.500;2022-12-29T18:59:11;10.00;85.70
9723;DHT22;4900;49.306;8.500;2022-12-29T19:02:15;9.96;85.88
9723;DHT22;4900;49.306;8.500;2022-12-29T19:05:35;9.97;85.84
9723;DHT22;4900;49.306;8.500;2022-12-29T19:08:39;9.90;85.89
9723;DHT22;4900;49.306;8.500;2022-12-29T19:11:42;9.93;85.95
9723;DHT22;4900;49.306;8.500;2022-12-29T19:14:45;9.91;85.85
9723;DHT22;4900;49.306;8.500;2022-12-29T19:17:50;9.90;85.76
9723;DHT22;4900;49.306;8.500;2022-12-29T19:20:54;9.83;85.87
9723;DHT22;4900;49.306;8.500;2022-12-29T19:23:59;9.83;85.83
9723;DHT22;4900;49.306;8.500;2022-12-29T19:27:02;9.78;85.89
9723;DHT22;4900;49.306;8.500;2022-12-29T19:30:05;9.82;85.89
9723;DHT22;4900;49.306;8.500;2022-12-29T19:33:09;9.79;85.91
9723;DHT22;4900;49.306;8.500;2022-12-29T19:36:13;9.76;85.88
9723;DHT22;4900;49.306;8.500;2022-12-29T19:39:20;9.69;85.93
9723;DHT22;4900;49.306;8.500;2022-12-29T19:42:23;9.72;85.88
9723;DHT22;4900;49.306;8.500;2022-12-29T19:45:26;9.72;85.82
9723;DHT22;4900;49.306;8.500;2022-12-29T19:48:30;9.72;85.76
9723;DHT22;4900;49.306;8.500;2022-12-29T19:51:33;9.74;85.56
9723;DHT22;4900;49.306;8.500;2022-12-29T19:54:37;9.73;85.52
9723;DHT22;4900;49.306;8.500;2022-12-29T19:57:40;9.67;85.55
9723;DHT22;4900;49.306;8.500;2022-12-29T20:00:44;9.69;85.45
9723;DHT22;4900;49.306;8.500;2022-12-29T20:03:47;9.74;85.27
9723;DHT22;4900;49.306;8.500;2022-12-29T20:06:51;9.73;85.18
9723;DHT22;4900;49.306;8.500;2022-12-29T20:09:55;9.74;85.13
9723;DHT22;4900;49.306;8.500;2022-12-29T20:12:58;9.72;85.05
9723;DHT22;4900;49.306;8.500;2022-12-29T20:16:07;9.63;85.33
9723;DHT22;4900;49.306;8.500;2022-12-29T20:19:11;9.69;85.11
9723;DHT22;4900;49.306;8.500;2022-12-29T20:22:14;9.70;85.23
9723;DHT22;4900;49.306;8.500;2022-12-29T20:25:18;9.69;85.25
9723;DHT22;4900;49.306;8.500;2022-12-29T20:28:22;9.70;85.17
9723;DHT22;4900;49.306;8.500;2022-12-29T20:31:37;9.70;85.08
9723;DHT22;4900;49.306;8.500;2022-12-29T20:34:41;9.65;85.22
9723;DHT22;4900;49.306;8.500;2022-12-29T20:37:44;9.72;85.11
9723;DHT22;4900;49.306;8.500;2022-12-29T20:44:11;9.65;85.40
9723;DHT22;4900;49.306;8.500;2022-12-29T20:47:17;9.61;85.51
9723;DHT22;4900;49.306;8.500;2022-12-29T20:50:29;9.62;85.51
9723;DHT22;4900;49.306;8.500;2022-12-29T20:53:37;9.56;85.73
9723;DHT22;4900;49.306;8.500;2022-12-29T20:56:41;9.62;85.57
9723;DHT22;4900;49.306;8.500;2022-12-29T20:59:44;9.65;85.50
9723;DHT22;4900;49.306;8.500;2022-12-29T21:02:57;9.66;85.40
9723;DHT22;4900;49.306;8.500;2022-12-29T21:06:05;9.62;85.33
9723;DHT22;4900;49.306;8.500;2022-12-29T21:09:08;9.66;85.33
9723;DHT22;4900;49.306;8.500;2022-12-29T21:12:25;9.70;85.01
9723;DHT22;4900;49.306;8.500;2022-12-29T21:15:30;9.63;85.11
9723;DHT22;4900;49.306;8.500;2022-12-29T21:18:38;9.62;85.43
9723;DHT22;4900;49.306;8.500;2022-12-29T21:21:54;9.63;85.28
9723;DHT22;4900;49.306;8.500;2022-12-29T21:24:57;9.63;85.33
9723;DHT22;4900;49.306;8.500;2022-12-29T21:28:08;9.56;85.60
9723;DHT22;4900;49.306;8.500;2022-12-29T21:31:35;9.56;85.76
9723;DHT22;4900;49.306;8.500;2022-12-29T21:34:38;9.59;85.69
9723;DHT22;4900;49.306;8.500;2022-12-29T21:37:42;9.61;85.53
9723;DHT22;4900;49.306;8.500;2022-12-29T21:40:48;9.63;85.54
9723;DHT22;4900;49.306;8.500;2022-12-29T21:44:00;9.61;85.58
9723;DHT22;4900;49.306;8.500;2022-12-29T21:47:25;9.53;85.80
9723;DHT22;4900;49.306;8.500;2022-12-29T21:50:54;9.58;85.77
9723;DHT22;4900;49.306;8.500;2022-12-29T21:54:17;9.53;85.65
9723;DHT22;4900;49.306;8.500;2022-12-29T21:57:44;9.58;85.66
9723;DHT22;4900;49.306;8.500;2022-12-29T22:01:09;9.53;85.70
9723;DHT22;4900;49.306;8.500;2022-12-29T22:04:32;9.52;85.85
9723;DHT22;4900;49.306;8.500;2022-12-29T22:07:54;9.51;85.64
9723;DHT22;4900;49.306;8.500;2022-12-29T22:11:15;9.48;85.97
9723;DHT22;4900;49.306;8.500;2022-12-29T22:14:37;9.38;86.10
9723;DHT22;4900;49.306;8.500;2022-12-29T22:17:48;9.45;86.18
9723;DHT22;4900;49.306;8.500;2022-12-29T22:20:52;9.49;86.01
9723;DHT22;4900;49.306;8.500;2022-12-29T22:23:54;9.48;86.04
9723;DHT22;4900;49.306;8.500;2022-12-29T22:26:57;9.48;85.99
9723;DHT22;4900;49.306;8.500;2022-12-29T22:30:00;9.49;86.04
9723;DHT22;4900;49.306;8.500;2022-12-29T22:33:04;9.46;86.10
9723;DHT22;4900;49.306;8.500;2022-12-29T22:36:07;9.52;85.96
9723;DHT22;4900;49.306;8.500;2022-12-29T22:39:10;9.53;85.83